sensor_id;sensor_type;location;lat;lon;timestamp;pressure;altitude;pressure_sealevel;temperature;humidity
22018;BME280;11173;51.050;7.108;2023-07-29T00:01:31;98747.84;;;18.83;70.01
22018;BME280;11173;51.050;7.108;2023-07-29T00:11:31;98738.34;;;18.86;69.88
22018;BME280;11173;51.050;7.108;2023-07-29T00:21:33;98737.38;;;18.90;69.71
22018;BME280;11173;51.050;7.108;2023-07-29T00:31:34;98720.22;;;18.93;69.75
22018;BME280;11173;51.050;7.108;2023-07-29T00:41:34;98720.97;;;18.94;70.04
22018;BME280;11173;51.050;7.108;2023-07-29T00:51:34;98722.53;;;18.95;69.76
22018;BME280;11173;51.050;7.108;2023-07-29T01:01:35;98709.69;;;18.94;69.95
22018;BME280;11173;51.050;7.108;2023-07-29T01:11:38;98699.97;;;18.95;70.26
22018;BME280;11173;51.050;7.108;2023-07-29T01:21:41;98682.19;;;18.88;69.98
22018;BME280;11173;51.050;7.108;2023-07-29T01:31:44;98675.75;;;18.82;70.43
22018;BME280;11173;51.050;7.108;2023-07-29T01:41:48;98677.75;;;18.76;69.98
22018;BME280;11173;51.050;7.108;2023-07-29T01:51:49;98670.81;;;18.72;70.70
22018;BME280;11173;51.050;7.108;2023-07-29T02:01:49;98664.94;;;18.75;70.41
22018;BME280;11173;51.050;7.108;2023-07-29T02:11:49;98663.16;;;18.78;70.48
22018;BME280;11173;51.050;7.108;2023-07-29T02:21:50;98657.28;;;18.81;70.82
22018;BME280;11173;51.050;7.108;2023-07-29T02:31:50;98658.78;;;18.77;70.56
22018;BME280;11173;51.050;7.108;2023-07-29T02:41:50;98662.81;;;18.70;70.67
22018;BME280;11173;51.050;7.108;2023-07-29T02:51:51;98657.97;;;18.71;70.99
22018;BME280;11173;51.050;7.108;2023-07-29T03:01:51;98672.09;;;18.76;71.21
22018;BME280;11173;51.050;7.108;2023-07-29T03:11:53;98650.34;;;18.82;71.24
22018;BME280;11173;51.050;7.108;2023-07-29T03:21:54;98657.56;;;18.83;71.02
22018;BME280;11173;51.050;7.108;2023-07-29T03:31:55;98645.25;;;18.86;70.99
22018;BME280;11173;51.050;7.108;2023-07-29T03:41:55;98647.06;;;18.90;71.04
22018;BME280;11173;51.050;7.108;2023-07-29T03:51:55;98639.09;;;18.88;70.95
22018;BME280;11173;51.050;7.108;2023-07-29T04:01:56;98648.81;;;18.81;70.82
22018;BME280;11173;51.050;7.108;2023-07-29T04:11:56;98646.72;;;18.76;71.25
22018;BME280;11173;51.050;7.108;2023-07-29T04:21:56;98667.97;;;18.72;71.08
22018;BME280;11173;51.050;7.108;2023-07-29T04:31:57;98664.88;;;18.70;71.43
22018;BME280;11173;51.050;7.108;2023-07-29T04:41:57;98669.50;;;18.73;71.75
22018;BME280;11173;51.050;7.108;2023-07-29T04:51:57;98684.13;;;18.71;70.89
22018;BME280;11173;51.050;7.108;2023-07-29T05:01:57;98701.50;;;18.64;70.93
22018;BME280;11173;51.050;7.108;2023-07-29T05:11:58;98683.00;;;18.57;71.10
22018;BME280;11173;51.050;7.108;2023-07-29T05:21:58;98683.00;;;18.57;71.66
22018;BME280;11173;51.050;7.108;2023-07-29T05:31:58;98678.88;;;18.58;71.90
22018;BME280;11173;51.050;7.108;2023-07-29T05:41:58;98696.13;;;18.66;72.15
22018;BME280;11173;51.050;7.108;2023-07-29T05:51:59;98712.88;;;18.75;71.83
22018;BME280;11173;51.050;7.108;2023-07-29T06:01:59;98730.84;;;18.78;71.86
22018;BME280;11173;51.050;7.108;2023-07-29T06:11:59;98736.81;;;18.85;72.27
22018;BME280;11173;51.050;7.108;2023-07-29T06:22:00;98754.94;;;19.05;71.28
22018;BME280;11173;51.050;7.108;2023-07-29T06:32:01;98760.44;;;19.20;71.67
22018;BME280;11173;51.050;7.108;2023-07-29T06:42:02;98767.66;;;19.21;69.39
22018;BME280;11173;51.050;7.108;2023-07-29T06:52:02;98766.94;;;19.00;69.40
22018;BME280;11173;51.050;7.108;2023-07-29T07:02:03;98773.03;;;18.93;70.07
22018;BME280;11173;51.050;7.108;2023-07-29T07:12:03;98775.78;;;18.81;70.12
22018;BME280;11173;51.050;7.108;2023-07-29T07:22:04;98774.06;;;18.90;71.50
22018;BME280;11173;51.050;7.108;2023-07-29T07:32:04;98782.34;;;19.25;70.51
22018;BME280;11173;51.050;7.108;2023-07-29T07:42:04;98791.94;;;19.39;70.14
22018;BME280;11173;51.050;7.108;2023-07-29T07:52:05;98787.19;;;19.62;69.72
22018;BME280;11173;51.050;7.108;2023-07-29T08:02:05;98794.00;;;19.87;68.12
22018;BME280;11173;51.050;7.108;2023-07-29T08:12:06;98799.56;;;20.13;67.77
22018;BME280;11173;51.050;7.108;2023-07-29T08:22:06;98793.47;;;20.37;68.31
22018;BME280;11173;51.050;7.108;2023-07-29T08:32:06;98785.53;;;20.53;66.85
22018;BME280;11173;51.050;7.108;2023-07-29T08:42:11;98795.06;;;20.55;66.43
22018;BME280;11173;51.050;7.108;2023-07-29T08:52:11;98807.69;;;20.65;64.61
22018;BME280;11173;51.050;7.108;2023-07-29T09:02:12;98810.03;;;20.73;62.77
22018;BME280;11173;51.050;7.108;2023-07-29T09:12:12;98817.47;;;20.76;63.10
22018;BME280;11173;51.050;7.108;2023-07-29T09:22:19;98830.16;;;20.97;63.51
22018;BME280;11173;51.050;7.108;2023-07-29T09:32:20;98816.78;;;21.26;63.42
22018;BME280;11173;51.050;7.108;2023-07-29T09:42:21;98818.59;;;21.52;63.61
22018;BME280;11173;51.050;7.108;2023-07-29T09:52:26;98829.09;;;21.85;64.82
22018;BME280;11173;51.050;7.108;2023-07-29T10:02:26;98829.00;;;22.24;64.95
22018;BME280;11173;51.050;7.108;2023-07-29T10:12:29;98817.84;;;22.85;64.73
22018;BME280;11173;51.050;7.108;2023-07-29T10:22:33;98822.44;;;23.30;63.88
22018;BME280;11173;51.050;7.108;2023-07-29T10:32:34;98829.19;;;23.81;62.17
22018;BME280;11173;51.050;7.108;2023-07-29T10:42:34;98823.19;;;24.34;62.98
22018;BME280;11173;51.050;7.108;2023-07-29T11:02:35;98841.00;;;23.91;61.22
22018;BME280;11173;51.050;7.108;2023-07-29T11:12:46;98831.28;;;23.20;62.38
22018;BME280;11173;51.050;7.108;2023-07-29T11:22:47;98825.38;;;23.18;63.79
22018;BME280;11173;51.050;7.108;2023-07-29T11:32:47;98819.16;;;23.50;63.82
22018;BME280;11173;51.050;7.108;2023-07-29T11:42:49;98811.81;;;24.10;64.97
22018;BME280;11173;51.050;7.108;2023-07-29T11:52:52;98813.56;;;24.75;62.25
22018;BME280;11173;51.050;7.108;2023-07-29T12:02:52;98810.97;;;24.96;62.96
22018;BME280;11173;51.050;7.108;2023-07-29T12:12:53;98815.31;;;25.30;61.88
22018;BME280;11173;51.050;7.108;2023-07-29T12:22:54;98809.94;;;25.58;60.75
22018;BME280;11173;51.050;7.108;2023-07-29T12:32:54;98811.59;;;25.67;60.36
22018;BME280;11173;51.050;7.108;2023-07-29T12:42:55;98785.56;;;25.44;57.95
22018;BME280;11173;51.050;7.108;2023-07-29T12:52:55;98786.47;;;24.88;57.75
22018;BME280;11173;51.050;7.108;2023-07-29T13:02:55;98796.91;;;24.66;59.06
22018;BME280;11173;51.050;7.108;2023-07-29T13:12:56;98769.09;;;24.72;59.84
22018;BME280;11173;51.050;7.108;2023-07-29T13:22:56;98794.72;;;24.72;60.44
22018;BME280;11173;51.050;7.108;2023-07-29T13:32:56;98791.72;;;24.65;59.19
22018;BME280;11173;51.050;7.108;2023-07-29T13:42:56;98801.88;;;24.41;59.07
22018;BME280;11173;51.050;7.108;2023-07-29T13:52:57;98794.44;;;23.94;59.05
22018;BME280;11173;51.050;7.108;2023-07-29T14:02:57;98808.94;;;23.36;59.46
22018;BME280;11173;51.050;7.108;2023-07-29T14:12:57;98827.59;;;22.90;60.66
22018;BME280;11173;51.050;7.108;2023-07-29T14:22:57;98803.88;;;22.93;63.51
22018;BME280;11173;51.050;7.108;2023-07-29T14:32:58;98796.34;;;23.56;64.09
22018;BME280;11173;51.050;7.108;2023-07-29T14:42:58;98825.09;;;24.01;61.76
22018;BME280;11173;51.050;7.108;2023-07-29T14:52:58;98819.25;;;23.94;60.28
22018;BME280;11173;51.050;7.108;2023-07-29T15:02:59;98797.19;;;23.51;59.65
22018;BME280;11173;51.050;7.108;2023-07-29T15:12:59;98808.38;;;23.13;60.23
22018;BME280;11173;51.050;7.108;2023-07-29T15:22:59;98808.38;;;22.71;61.30
22018;BME280;11173;51.050;7.108;2023-07-29T15:32:59;98808.31;;;22.82;61.91
22018;BME280;11173;51.050;7.108;2023-07-29T15:43:00;98791.69;;;22.98;62.09
22018;BME280;11173;51.050;7.108;2023-07-29T15:53:00;98788.81;;;23.34;62.80
22018;BME280;11173;51.050;7.108;2023-07-29T16:03:01;98800.47;;;23.60;60.88
22018;BME280;11173;51.050;7.108;2023-07-29T16:13:01;98802.00;;;23.61;59.45
22018;BME280;11173;51.050;7.108;2023-07-29T16:23:03;98797.81;;;23.38;59.08
22018;BME280;11173;51.050;7.108;2023-07-29T16:33:03;98814.81;;;23.13;58.88
22018;BME280;11173;51.050;7.108;2023-07-29T16:43:03;98806.34;;;23.08;60.61
22018;BME280;11173;51.050;7.108;2023-07-29T16:53:04;98797.69;;;23.25;61.53
22018;BME280;11173;51.050;7.108;2023-07-29T17:03:04;98786.28;;;23.55;60.30
22018;BME280;11173;51.050;7.108;2023-07-29T17:13:04;98787.81;;;23.31;59.51
22018;BME280;11173;51.050;7.108;2023-07-29T17:23:04;98777.25;;;22.96;60.26
22018;BME280;11173;51.050;7.108;2023-07-29T17:33:05;98780.41;;;23.22;63.30
22018;BME280;11173;51.050;7.108;2023-07-29T17:43:05;98799.09;;;23.67;60.30
22018;BME280;11173;51.050;7.108;2023-07-29T17:53:06;98810.13;;;23.16;59.08
22018;BME280;11173;51.050;7.108;2023-07-29T18:03:06;98811.91;;;22.41;59.77
22018;BME280;11173;51.050;7.108;2023-07-29T18:13:06;98825.00;;;21.80;60.64
22018;BME280;11173;51.050;7.108;2023-07-29T18:23:07;98838.41;;;21.23;61.28
22018;BME280;11173;51.050;7.108;2023-07-29T18:33:07;98840.88;;;20.76;62.45
22018;BME280;11173;51.050;7.108;2023-07-29T18:43:08;98837.97;;;20.37;62.65
22018;BME280;11173;51.050;7.108;2023-07-29T18:53:09;98831.06;;;20.00;63.25
22018;BME280;11173;51.050;7.108;2023-07-29T19:03:09;98832.44;;;19.67;63.84
22018;BME280;11173;51.050;7.108;2023-07-29T19:13:10;98848.16;;;19.42;64.17
22018;BME280;11173;51.050;7.108;2023-07-29T19:23:10;98853.00;;;19.10;63.78
22018;BME280;11173;51.050;7.108;2023-07-29T19:33:11;98856.09;;;18.60;63.99
22018;BME280;11173;51.050;7.108;2023-07-29T19:43:11;98855.44;;;18.09;65.56
22018;BME280;11173;51.050;7.108;2023-07-29T19:53:12;98851.78;;;17.67;68.50
22018;BME280;11173;51.050;7.108;2023-07-29T20:03:12;98857.72;;;17.40;66.85
22018;BME280;11173;51.050;7.108;2023-07-29T20:13:12;98854.91;;;17.25;67.85
22018;BME280;11173;51.050;7.108;2023-07-29T20:23:13;98854.72;;;17.28;69.21
22018;BME280;11173;51.050;7.108;2023-07-29T20:33:20;98843.97;;;17.27;69.08
22018;BME280;11173;51.050;7.108;2023-07-29T20:43:20;98838.44;;;17.18;68.65
22018;BME280;11173;51.050;7.108;2023-07-29T20:53:21;98842.59;;;17.07;68.74
22018;BME280;11173;51.050;7.108;2023-07-29T21:03:21;98851.44;;;17.15;68.28
22018;BME280;11173;51.050;7.108;2023-07-29T21:13:22;98863.16;;;17.28;67.30
22018;BME280;11173;51.050;7.108;2023-07-29T21:23:22;98858.91;;;17.18;67.01
22018;BME280;11173;51.050;7.108;2023-07-29T21:33:22;98860.16;;;17.02;66.95
22018;BME280;11173;51.050;7.108;2023-07-29T21:43:23;98868.59;;;16.87;67.36
22018;BME280;11173;51.050;7.108;2023-07-29T21:53:23;98873.41;;;16.72;67.33
22018;BME280;11173;51.050;7.108;2023-07-29T22:03:24;98892.66;;;16.64;67.86
22018;BME280;11173;51.050;7.108;2023-07-29T22:13:24;98916.78;;;16.56;67.53
22018;BME280;11173;51.050;7.108;2023-07-29T22:23:24;98927.91;;;16.50;68.42
22018;BME280;11173;51.050;7.108;2023-07-29T22:33:25;98942.22;;;16.62;68.69
22018;BME280;11173;51.050;7.108;2023-07-29T22:43:25;98949.38;;;16.63;67.41
22018;BME280;11173;51.050;7.108;2023-07-29T22:53:26;98961.03;;;16.46;67.35
22018;BME280;11173;51.050;7.108;2023-07-29T23:03:26;98960.69;;;16.29;68.15
22018;BME280;11173;51.050;7.108;2023-07-29T23:13:26;98959.50;;;16.21;68.47
22018;BME280;11173;51.050;7.108;2023-07-29T23:23:26;98962.03;;;16.10;68.35
22018;BME280;11173;51.050;7.108;2023-07-29T23:33:27;98971.63;;;15.94;68.21
22018;BME280;11173;51.050;7.108;2023-07-29T23:43:27;98966.81;;;15.76;68.02
22018;BME280;11173;51.050;7.108;2023-07-29T23:53:27;98963.63;;;15.59;68.05
